sensor_id;sensor_type;location;lat;lon;timestamp;temperature;humidity
19864;DHT22;10094;48.820;9.226;2022-08-19T00:00:51;22.70;99.60
19864;DHT22;10094;48.820;9.226;2022-08-19T00:07:34;22.60;99.50
19864;DHT22;10094;48.820;9.226;2022-08-19T00:14:17;22.60;99.90
19864;DHT22;10094;48.820;9.226;2022-08-19T00:21:00;22.60;99.90
19864;DHT22;10094;48.820;9.226;2022-08-19T00:27:42;22.70;99.00
19864;DHT22;10094;48.820;9.226;2022-08-19T00:34:26;22.60;99.30
19864;DHT22;10094;48.820;9.226;2022-08-19T00:41:16;22.60;99.50
19864;DHT22;10094;48.820;9.226;2022-08-19T00:48:00;22.50;99.10
19864;DHT22;10094;48.820;9.226;2022-08-19T00:54:47;22.60;99.20
19864;DHT22;10094;48.820;9.226;2022-08-19T01:01:35;22.50;99.30
19864;DHT22;10094;48.820;9.226;2022-08-19T01:08:18;22.50;99.20
19864;DHT22;10094;48.820;9.226;2022-08-19T01:15:01;22.50;99.30
19864;DHT22;10094;48.820;9.226;2022-08-19T01:21:51;22.50;99.40
19864;DHT22;10094;48.820;9.226;2022-08-19T01:28:36;22.40;99.50
19864;DHT22;10094;48.820;9.226;2022-08-19T01:35:23;22.40;99.70
19864;DHT22;10094;48.820;9.226;2022-08-19T01:42:07;22.40;99.50
19864;DHT22;10094;48.820;9.226;2022-08-19T01:48:53;22.50;99.60
19864;DHT22;10094;48.820;9.226;2022-08-19T01:55:38;22.40;99.40
19864;DHT22;10094;48.820;9.226;2022-08-19T02:02:22;22.30;99.70
19864;DHT22;10094;48.820;9.226;2022-08-19T02:09:05;22.20;99.90
19864;DHT22;10094;48.820;9.226;2022-08-19T02:15:48;22.10;99.90
19864;DHT22;10094;48.820;9.226;2022-08-19T02:22:31;22.00;99.90
19864;DHT22;10094;48.820;9.226;2022-08-19T02:29:13;22.00;99.90
19864;DHT22;10094;48.820;9.226;2022-08-19T02:35:56;21.90;99.90
19864;DHT22;10094;48.820;9.226;2022-08-19T02:42:38;21.90;99.90
19864;DHT22;10094;48.820;9.226;2022-08-19T02:49:22;21.80;99.90
19864;DHT22;10094;48.820;9.226;2022-08-19T02:56:06;21.70;99.90
19864;DHT22;10094;48.820;9.226;2022-08-19T03:02:50;21.60;99.90
19864;DHT22;10094;48.820;9.226;2022-08-19T03:09:32;21.40;99.90
19864;DHT22;10094;48.820;9.226;2022-08-19T03:16:15;21.30;99.90
19864;DHT22;10094;48.820;9.226;2022-08-19T03:22:58;21.30;99.90
19864;DHT22;10094;48.820;9.226;2022-08-19T03:29:40;21.30;99.90
19864;DHT22;10094;48.820;9.226;2022-08-19T03:36:26;21.30;99.90
19864;DHT22;10094;48.820;9.226;2022-08-19T03:43:10;21.30;99.90
19864;DHT22;10094;48.820;9.226;2022-08-19T03:49:53;21.20;99.90
19864;DHT22;10094;48.820;9.226;2022-08-19T03:56:38;21.20;99.90
19864;DHT22;10094;48.820;9.226;2022-08-19T04:03:20;21.10;99.90
19864;DHT22;10094;48.820;9.226;2022-08-19T04:10:03;21.10;99.90
19864;DHT22;10094;48.820;9.226;2022-08-19T04:16:47;21.10;99.90
19864;DHT22;10094;48.820;9.226;2022-08-19T04:23:31;21.00;99.90
19864;DHT22;10094;48.820;9.226;2022-08-19T04:30:14;21.00;99.90
19864;DHT22;10094;48.820;9.226;2022-08-19T04:36:58;21.00;99.90
19864;DHT22;10094;48.820;9.226;2022-08-19T04:43:41;21.00;99.90
19864;DHT22;10094;48.820;9.226;2022-08-19T04:50:23;20.80;99.90
19864;DHT22;10094;48.820;9.226;2022-08-19T04:57:08;20.90;99.90
19864;DHT22;10094;48.820;9.226;2022-08-19T05:03:52;21.00;99.90
19864;DHT22;10094;48.820;9.226;2022-08-19T05:10:38;21.00;99.90
19864;DHT22;10094;48.820;9.226;2022-08-19T05:17:21;21.00;99.90
19864;DHT22;10094;48.820;9.226;2022-08-19T05:24:20;21.10;99.90
19864;DHT22;10094;48.820;9.226;2022-08-19T05:31:03;21.10;99.90
19864;DHT22;10094;48.820;9.226;2022-08-19T05:37:45;21.20;99.90
19864;DHT22;10094;48.820;9.226;2022-08-19T05:44:29;21.20;99.90
19864;DHT22;10094;48.820;9.226;2022-08-19T05:51:16;21.30;99.90
19864;DHT22;10094;48.820;9.226;2022-08-19T05:57:59;21.30;99.90
19864;DHT22;10094;48.820;9.226;2022-08-19T06:04:43;21.30;99.90
19864;DHT22;10094;48.820;9.226;2022-08-19T06:11:50;21.30;99.90
19864;DHT22;10094;48.820;9.226;2022-08-19T06:18:37;21.30;99.90
19864;DHT22;10094;48.820;9.226;2022-08-19T06:25:19;21.30;99.90
19864;DHT22;10094;48.820;9.226;2022-08-19T06:32:03;21.30;99.90
19864;DHT22;10094;48.820;9.226;2022-08-19T06:38:46;21.20;99.90
19864;DHT22;10094;48.820;9.226;2022-08-19T06:45:28;21.30;99.90
19864;DHT22;10094;48.820;9.226;2022-08-19T06:52:19;21.30;99.90
19864;DHT22;10094;48.820;9.226;2022-08-19T06:59:07;21.20;99.90
19864;DHT22;10094;48.820;9.226;2022-08-19T07:05:50;21.20;99.90
19864;DHT22;10094;48.820;9.226;2022-08-19T07:12:32;21.40;99.90
19864;DHT22;10094;48.820;9.226;2022-08-19T07:19:19;21.70;99.90
19864;DHT22;10094;48.820;9.226;2022-08-19T07:26:17;21.60;99.90
19864;DHT22;10094;48.820;9.226;2022-08-19T07:33:09;21.70;99.90
19864;DHT22;10094;48.820;9.226;2022-08-19T07:39:51;21.70;99.90
19864;DHT22;10094;48.820;9.226;2022-08-19T07:46:36;21.70;99.90
19864;DHT22;10094;48.820;9.226;2022-08-19T07:53:20;21.70;99.90
19864;DHT22;10094;48.820;9.226;2022-08-19T08:00:04;21.50;99.90
19864;DHT22;10094;48.820;9.226;2022-08-19T08:06:53;21.40;99.90
19864;DHT22;10094;48.820;9.226;2022-08-19T08:13:56;21.40;99.90
19864;DHT22;10094;48.820;9.226;2022-08-19T08:20:45;21.30;99.90
19864;DHT22;10094;48.820;9.226;2022-08-19T08:27:28;21.30;99.90
19864;DHT22;10094;48.820;9.226;2022-08-19T08:34:14;21.20;99.90
19864;DHT22;10094;48.820;9.226;2022-08-19T08:41:02;21.20;99.90
19864;DHT22;10094;48.820;9.226;2022-08-19T08:47:50;21.40;99.90
19864;DHT22;10094;48.820;9.226;2022-08-19T08:54:41;22.00;99.90
19864;DHT22;10094;48.820;9.226;2022-08-19T09:01:36;22.70;99.90
19864;DHT22;10094;48.820;9.226;2022-08-19T09:15:28;23.10;99.90
19864;DHT22;10094;48.820;9.226;2022-08-19T09:22:18;22.90;99.90
19864;DHT22;10094;48.820;9.226;2022-08-19T09:29:08;22.70;99.90
19864;DHT22;10094;48.820;9.226;2022-08-19T09:36:04;22.70;99.90
19864;DHT22;10094;48.820;9.226;2022-08-19T09:42:49;22.80;99.90
19864;DHT22;10094;48.820;9.226;2022-08-19T09:49:33;22.70;99.90
19864;DHT22;10094;48.820;9.226;2022-08-19T09:56:18;22.60;99.90
19864;DHT22;10094;48.820;9.226;2022-08-19T10:03:00;22.70;99.90
19864;DHT22;10094;48.820;9.226;2022-08-19T10:09:44;22.70;99.90
19864;DHT22;10094;48.820;9.226;2022-08-19T10:16:28;22.70;99.90
19864;DHT22;10094;48.820;9.226;2022-08-19T10:23:12;22.70;99.90
19864;DHT22;10094;48.820;9.226;2022-08-19T10:29:54;22.90;99.90
19864;DHT22;10094;48.820;9.226;2022-08-19T10:36:39;23.30;99.90
19864;DHT22;10094;48.820;9.226;2022-08-19T10:43:37;23.30;99.90
19864;DHT22;10094;48.820;9.226;2022-08-19T10:50:20;23.40;99.90
19864;DHT22;10094;48.820;9.226;2022-08-19T10:57:22;23.40;99.90
19864;DHT22;10094;48.820;9.226;2022-08-19T11:04:31;23.10;99.90
19864;DHT22;10094;48.820;9.226;2022-08-19T11:11:14;23.20;99.90
19864;DHT22;10094;48.820;9.226;2022-08-19T11:17:56;23.40;99.90
19864;DHT22;10094;48.820;9.226;2022-08-19T11:24:39;23.60;99.80
19864;DHT22;10094;48.820;9.226;2022-08-19T11:31:28;23.90;99.00
19864;DHT22;10094;48.820;9.226;2022-08-19T11:38:10;23.90;98.50
19864;DHT22;10094;48.820;9.226;2022-08-19T11:44:53;24.20;98.10
19864;DHT22;10094;48.820;9.226;2022-08-19T11:51:36;24.20;98.00
19864;DHT22;10094;48.820;9.226;2022-08-19T11:58:18;24.10;97.70
19864;DHT22;10094;48.820;9.226;2022-08-19T12:05:01;24.00;98.10
19864;DHT22;10094;48.820;9.226;2022-08-19T12:11:52;24.00;98.60
19864;DHT22;10094;48.820;9.226;2022-08-19T12:18:35;24.00;98.70
19864;DHT22;10094;48.820;9.226;2022-08-19T12:25:17;24.10;98.40
19864;DHT22;10094;48.820;9.226;2022-08-19T12:32:03;24.30;98.40
19864;DHT22;10094;48.820;9.226;2022-08-19T12:38:46;24.30;99.90
19864;DHT22;10094;48.820;9.226;2022-08-19T12:45:28;23.80;99.90
19864;DHT22;10094;48.820;9.226;2022-08-19T12:52:11;23.30;99.90
19864;DHT22;10094;48.820;9.226;2022-08-19T12:58:57;23.00;99.90
19864;DHT22;10094;48.820;9.226;2022-08-19T13:05:40;22.90;99.90
19864;DHT22;10094;48.820;9.226;2022-08-19T13:12:22;22.60;99.90
19864;DHT22;10094;48.820;9.226;2022-08-19T13:19:08;22.20;99.90
19864;DHT22;10094;48.820;9.226;2022-08-19T13:25:58;22.10;99.90
19864;DHT22;10094;48.820;9.226;2022-08-19T13:32:41;22.20;99.90
19864;DHT22;10094;48.820;9.226;2022-08-19T13:39:42;22.10;99.90
19864;DHT22;10094;48.820;9.226;2022-08-19T13:46:27;21.90;99.90
19864;DHT22;10094;48.820;9.226;2022-08-19T13:53:11;21.70;99.90
19864;DHT22;10094;48.820;9.226;2022-08-19T13:59:54;21.70;99.90
19864;DHT22;10094;48.820;9.226;2022-08-19T14:06:36;21.60;99.90
19864;DHT22;10094;48.820;9.226;2022-08-19T14:13:21;21.30;99.90
19864;DHT22;10094;48.820;9.226;2022-08-19T14:20:06;21.30;99.90
19864;DHT22;10094;48.820;9.226;2022-08-19T14:26:52;21.20;99.90
19864;DHT22;10094;48.820;9.226;2022-08-19T14:33:35;21.30;99.90
19864;DHT22;10094;48.820;9.226;2022-08-19T14:40:19;21.30;99.90
19864;DHT22;10094;48.820;9.226;2022-08-19T14:47:04;21.40;99.90
19864;DHT22;10094;48.820;9.226;2022-08-19T14:53:46;21.10;99.90
19864;DHT22;10094;48.820;9.226;2022-08-19T15:00:32;21.10;99.90
19864;DHT22;10094;48.820;9.226;2022-08-19T15:07:18;21.10;99.90
19864;DHT22;10094;48.820;9.226;2022-08-19T15:14:01;21.30;99.90
19864;DHT22;10094;48.820;9.226;2022-08-19T15:20:43;21.60;99.90
19864;DHT22;10094;48.820;9.226;2022-08-19T15:27:28;21.90;99.90
19864;DHT22;10094;48.820;9.226;2022-08-19T15:34:10;21.80;99.90
19864;DHT22;10094;48.820;9.226;2022-08-19T15:40:53;21.70;99.90
19864;DHT22;10094;48.820;9.226;2022-08-19T15:47:36;21.70;99.90
19864;DHT22;10094;48.820;9.226;2022-08-19T15:54:20;22.00;99.90
19864;DHT22;10094;48.820;9.226;2022-08-19T16:01:06;22.00;99.90
19864;DHT22;10094;48.820;9.226;2022-08-19T16:08:09;22.20;99.90
19864;DHT22;10094;48.820;9.226;2022-08-19T16:14:51;22.40;99.90
19864;DHT22;10094;48.820;9.226;2022-08-19T16:21:35;22.40;99.90
19864;DHT22;10094;48.820;9.226;2022-08-19T16:28:21;22.90;99.90
19864;DHT22;10094;48.820;9.226;2022-08-19T16:35:05;22.80;99.90
19864;DHT22;10094;48.820;9.226;2022-08-19T16:41:48;22.80;99.90
19864;DHT22;10094;48.820;9.226;2022-08-19T16:48:32;22.50;99.90
19864;DHT22;10094;48.820;9.226;2022-08-19T16:55:14;22.40;99.90
19864;DHT22;10094;48.820;9.226;2022-08-19T17:01:58;22.20;99.90
19864;DHT22;10094;48.820;9.226;2022-08-19T17:08:40;22.20;99.90
19864;DHT22;10094;48.820;9.226;2022-08-19T17:15:29;22.20;99.90
19864;DHT22;10094;48.820;9.226;2022-08-19T17:22:13;22.30;99.90
19864;DHT22;10094;48.820;9.226;2022-08-19T17:28:57;21.90;99.90
19864;DHT22;10094;48.820;9.226;2022-08-19T17:35:41;21.90;99.90
19864;DHT22;10094;48.820;9.226;2022-08-19T17:42:24;21.70;99.90
19864;DHT22;10094;48.820;9.226;2022-08-19T17:49:07;21.50;99.90
19864;DHT22;10094;48.820;9.226;2022-08-19T17:55:50;21.40;99.90
19864;DHT22;10094;48.820;9.226;2022-08-19T18:02:32;21.30;99.90
19864;DHT22;10094;48.820;9.226;2022-08-19T18:09:15;21.30;99.90
19864;DHT22;10094;48.820;9.226;2022-08-19T18:15:58;21.20;99.90
19864;DHT22;10094;48.820;9.226;2022-08-19T18:22:43;21.10;99.90
19864;DHT22;10094;48.820;9.226;2022-08-19T18:29:25;21.00;99.90
19864;DHT22;10094;48.820;9.226;2022-08-19T18:36:08;21.00;99.90
19864;DHT22;10094;48.820;9.226;2022-08-19T18:42:50;20.90;99.90
19864;DHT22;10094;48.820;9.226;2022-08-19T18:49:51;20.90;99.90
19864;DHT22;10094;48.820;9.226;2022-08-19T18:56:34;20.80;99.90
19864;DHT22;10094;48.820;9.226;2022-08-19T19:03:18;20.80;99.90
19864;DHT22;10094;48.820;9.226;2022-08-19T19:10:01;20.80;99.90
19864;DHT22;10094;48.820;9.226;2022-08-19T19:16:44;20.80;99.90
19864;DHT22;10094;48.820;9.226;2022-08-19T19:23:29;20.80;99.90
19864;DHT22;10094;48.820;9.226;2022-08-19T19:30:12;20.80;99.90
19864;DHT22;10094;48.820;9.226;2022-08-19T19:36:55;20.80;99.90
19864;DHT22;10094;48.820;9.226;2022-08-19T19:43:38;20.60;99.90
19864;DHT22;10094;48.820;9.226;2022-08-19T19:50:22;20.60;99.90
19864;DHT22;10094;48.820;9.226;2022-08-19T19:57:04;20.60;99.90
19864;DHT22;10094;48.820;9.226;2022-08-19T20:03:48;20.70;99.90
19864;DHT22;10094;48.820;9.226;2022-08-19T20:10:30;20.80;99.90
19864;DHT22;10094;48.820;9.226;2022-08-19T20:17:13;20.90;99.90
19864;DHT22;10094;48.820;9.226;2022-08-19T20:23:59;21.00;99.90
19864;DHT22;10094;48.820;9.226;2022-08-19T20:30:51;21.10;99.90
19864;DHT22;10094;48.820;9.226;2022-08-19T20:37:33;21.00;99.90
19864;DHT22;10094;48.820;9.226;2022-08-19T20:44:16;21.00;99.90
19864;DHT22;10094;48.820;9.226;2022-08-19T20:50:58;21.00;99.90
19864;DHT22;10094;48.820;9.226;2022-08-19T20:57:40;21.00;99.90
19864;DHT22;10094;48.820;9.226;2022-08-19T21:04:23;21.10;99.90
19864;DHT22;10094;48.820;9.226;2022-08-19T21:11:06;21.10;99.90
19864;DHT22;10094;48.820;9.226;2022-08-19T21:17:49;21.10;99.90
19864;DHT22;10094;48.820;9.226;2022-08-19T21:24:33;21.20;99.90
19864;DHT22;10094;48.820;9.226;2022-08-19T21:31:15;21.30;99.90
19864;DHT22;10094;48.820;9.226;2022-08-19T21:37:59;21.30;99.90
19864;DHT22;10094;48.820;9.226;2022-08-19T21:44:41;21.40;99.90
19864;DHT22;10094;48.820;9.226;2022-08-19T21:51:27;21.40;99.90
19864;DHT22;10094;48.820;9.226;2022-08-19T21:58:10;21.50;99.90
19864;DHT22;10094;48.820;9.226;2022-08-19T22:04:53;21.50;99.90
19864;DHT22;10094;48.820;9.226;2022-08-19T22:11:35;21.70;99.90
19864;DHT22;10094;48.820;9.226;2022-08-19T22:18:18;21.90;99.90
19864;DHT22;10094;48.820;9.226;2022-08-19T22:25:07;22.30;99.90
19864;DHT22;10094;48.820;9.226;2022-08-19T22:31:51;22.50;99.90
19864;DHT22;10094;48.820;9.226;2022-08-19T22:38:39;22.50;99.90
19864;DHT22;10094;48.820;9.226;2022-08-19T22:45:22;22.70;99.50
19864;DHT22;10094;48.820;9.226;2022-08-19T22:52:05;22.70;99.10
19864;DHT22;10094;48.820;9.226;2022-08-19T22:58:58;22.70;99.20
19864;DHT22;10094;48.820;9.226;2022-08-19T23:05:41;22.70;99.50
19864;DHT22;10094;48.820;9.226;2022-08-19T23:12:31;22.60;99.70
19864;DHT22;10094;48.820;9.226;2022-08-19T23:19:14;22.50;99.90
19864;DHT22;10094;48.820;9.226;2022-08-19T23:25:56;22.50;99.90
19864;DHT22;10094;48.820;9.226;2022-08-19T23:32:39;22.50;99.90
19864;DHT22;10094;48.820;9.226;2022-08-19T23:39:22;22.40;99.90
19864;DHT22;10094;48.820;9.226;2022-08-19T23:46:07;22.30;99.90
19864;DHT22;10094;48.820;9.226;2022-08-19T23:52:54;22.10;99.90
19864;DHT22;10094;48.820;9.226;2022-08-19T23:59:36;21.90;99.90
